Time;durP1;ratioP1;P1;durP2;ratioP2;P2;SDS_P1;SDS_P2;PMS_P1;PMS_P2;Temp;Humidity;BMP_temperature;BMP_pressure;BME280_temperature;BME280_humidity;BME280_pressure;Samples;Min_cycle;Max_cycle;Signal;HPM_P1;HPM_P2
2021/08/05 00:00:45;;;;;;;12.85;5.03;;;23.50;77.40;;;;;;5116458;28;20024;-52
2021/08/05 00:03:10;;;;;;;9.38;4.85;;;23.60;77.40;;;;;;5116280;28;20036;-52
2021/08/05 00:05:37;;;;;;;9.32;4.72;;;23.40;78.00;;;;;;5030550;28;20027;-53
2021/08/05 00:08:04;;;;;;;11.10;4.63;;;23.20;87.90;;;;;;5116216;28;20073;-54
2021/08/05 00:10:29;;;;;;;8.73;4.72;;;23.20;78.80;;;;;;5116344;28;20053;-53
2021/08/05 00:12:56;;;;;;;11.07;5.00;;;23.10;79.00;;;;;;5030464;28;20039;-53
2021/08/05 00:15:22;;;;;;;8.77;4.43;;;23.10;78.90;;;;;;5116118;28;20023;-52
2021/08/05 00:17:47;;;;;;;7.63;4.93;;;23.10;79.00;;;;;;5116226;28;20413;-52
2021/08/05 00:20:13;;;;;;;7.32;4.43;;;23.20;78.80;;;;;;5116292;28;20031;-52
2021/08/05 00:22:39;;;;;;;12.45;5.45;;;23.20;78.90;;;;;;5115961;28;20054;-52
2021/08/05 00:25:05;;;;;;;6.57;4.07;;;23.20;78.80;;;;;;5063015;28;20031;-52
2021/08/05 00:27:31;;;;;;;8.93;4.70;;;23.30;78.80;;;;;;5116126;28;20547;-53
2021/08/05 00:29:57;;;;;;;10.98;4.32;;;23.20;78.60;;;;;;5115598;28;20032;-52
2021/08/05 00:32:23;;;;;;;11.23;5.10;;;23.10;79.00;;;;;;5116049;28;20039;-52
2021/08/05 00:34:48;;;;;;;9.23;4.78;;;23.10;79.40;;;;;;5063252;28;20169;-52
2021/08/05 00:37:14;;;;;;;9.27;5.65;;;23.30;79.40;;;;;;5115717;28;20028;-52
2021/08/05 00:39:40;;;;;;;8.05;5.47;;;23.30;79.10;;;;;;5115882;28;20183;-53
2021/08/05 00:42:06;;;;;;;11.35;4.90;;;23.30;78.80;;;;;;5115460;28;20072;-53
2021/08/05 00:44:33;;;;;;;8.10;4.60;;;23.30;78.80;;;;;;5115728;28;20467;-52
2021/08/05 00:46:59;;;;;;;7.85;4.90;;;23.20;78.80;;;;;;5115585;28;20036;-53
2021/08/05 00:49:25;;;;;;;8.25;4.85;;;23.10;79.20;;;;;;5115319;28;20032;-53
2021/08/05 00:51:50;;;;;;;11.38;5.13;;;22.80;80.00;;;;;;5115446;28;20429;-53
2021/08/05 00:54:17;;;;;;;12.55;5.50;;;22.80;80.30;;;;;;5115636;28;20084;-53
2021/08/05 00:56:43;;;;;;;9.77;5.10;;;22.70;80.40;;;;;;5096471;28;20039;-53
2021/08/05 00:59:08;;;;;;;11.35;5.22;;;22.70;80.60;;;;;;5115151;28;20374;-54
2021/08/05 01:01:42;;;;;;;10.98;5.43;;;22.60;81.30;;;;;;5115891;28;20031;-53
2021/08/05 01:04:08;;;;;;;13.70;5.75;;;22.60;80.90;;;;;;5079489;28;20108;-53
2021/08/05 01:07:05;;;;;;;9.20;4.75;;;22.60;82.60;;;;;;5114886;28;20447;-52
2021/08/05 01:10:09;;;;;;;8.13;5.03;;;22.30;82.60;;;;;;5115153;28;20081;-52
2021/08/05 01:12:53;;;;;;;9.70;5.20;;;22.30;83.10;;;;;;5113802;28;20054;-52
2021/08/05 01:15:25;;;;;;;7.93;5.00;;;22.20;83.00;;;;;;5114635;28;20034;-52
2021/08/05 01:17:54;;;;;;;11.32;5.50;;;;;;;;;;5115172;28;20072;-53
2021/08/05 01:20:22;;;;;;;9.02;5.57;;;22.00;82.90;;;;;;5114353;28;20032;-52
2021/08/05 01:23:18;;;;;;;12.07;5.43;;;21.90;83.60;;;;;;5095700;28;20121;-53
2021/08/05 01:25:47;;;;;;;15.85;5.63;;;21.90;84.00;;;;;;5114472;28;20118;-52
2021/08/05 01:28:14;;;;;;;9.70;6.00;;;22.00;83.70;;;;;;5061915;28;20048;-53
2021/08/05 01:30:41;;;;;;;9.57;5.40;;;22.10;83.20;;;;;;5114661;28;20036;-53
2021/08/05 01:33:08;;;;;;;8.35;5.93;;;22.10;83.10;;;;;;5095832;28;20043;-52
2021/08/05 01:35:35;;;;;;;9.02;5.63;;;22.00;83.50;;;;;;5095047;28;20046;-53
2021/08/05 01:38:01;;;;;;;9.65;5.45;;;22.20;83.00;;;;;;5114639;28;20032;-52
2021/08/05 01:40:29;;;;;;;9.93;5.32;;;22.10;83.10;;;;;;5076004;28;20039;-52
2021/08/05 01:42:59;;;;;;;6.28;5.00;;;22.10;83.00;;;;;;5058275;28;20510;-53
2021/08/05 01:45:26;;;;;;;8.88;5.28;;;22.10;83.10;;;;;;5094017;28;20419;-52
2021/08/05 01:47:53;;;;;;;9.38;5.32;;;21.90;83.40;;;;;;5093978;28;20032;-55
2021/08/05 01:50:19;;;;;;;10.25;4.95;;;21.90;83.80;;;;;;5093925;28;20035;-52
2021/08/05 01:52:45;;;;;;;10.35;6.10;;;21.90;83.70;;;;;;5094000;28;20467;-52
2021/08/05 01:55:13;;;;;;;10.57;5.35;;;22.00;83.60;;;;;;5094002;28;20024;-52
2021/08/05 01:57:39;;;;;;;7.85;5.18;;;21.70;84.30;;;;;;5074965;28;20046;-52
2021/08/05 02:00:07;;;;;;;9.45;5.03;;;21.70;84.30;;;;;;5093702;28;20372;-53
2021/08/05 02:02:33;;;;;;;8.30;5.20;;;21.60;84.40;;;;;;5094052;28;20036;-52
2021/08/05 02:05:15;;;;;;;11.07;5.68;;;21.70;84.40;;;;;;5058359;28;20052;-52
2021/08/05 02:08:02;;;;;;;7.40;5.25;;;21.80;84.10;;;;;;5093632;28;20043;-52
2021/08/05 02:10:34;;;;;;;11.63;5.10;;;21.90;84.00;;;;;;5093828;28;20411;-53
2021/08/05 02:13:13;;;;;;;8.27;5.80;;;22.10;83.20;;;;;;5074611;28;20067;-53
2021/08/05 02:15:44;;;;;;;6.88;4.82;;;22.10;83.00;;;;;;5093629;28;20039;-53
2021/08/05 02:18:12;;;;;;;10.38;5.35;;;21.90;83.50;;;;;;5093795;28;20042;-52
2021/08/05 02:20:41;;;;;;;8.52;5.40;;;21.70;84.40;;;;;;5093654;28;20020;-52
2021/08/05 02:23:10;;;;;;;8.23;4.65;;;21.60;84.90;;;;;;5093653;28;20060;-53
2021/08/05 02:25:37;;;;;;;10.73;4.93;;;21.50;85.30;;;;;;5111026;28;20031;-53
2021/08/05 02:28:06;;;;;;;8.38;4.65;;;21.50;85.50;;;;;;5113549;28;20815;-52
2021/08/05 02:30:32;;;;;;;7.55;4.40;;;21.50;85.60;;;;;;5113735;28;20055;-52
2021/08/05 02:32:58;;;;;;;9.10;4.93;;;21.60;85.40;;;;;;5113814;28;20388;-53
2021/08/05 02:35:26;;;;;;;7.78;4.63;;;21.20;86.80;;;;;;5113875;28;20024;-52
2021/08/05 02:37:52;;;;;;;8.27;4.68;;;;;;;;;;5113765;28;20496;-52
2021/08/05 02:40:19;;;;;;;8.82;4.72;;;21.80;84.60;;;;;;5113859;28;20457;-52
2021/08/05 02:42:46;;;;;;;7.32;4.95;;;21.40;86.60;;;;;;5100628;28;20131;-52
2021/08/05 02:45:13;;;;;;;6.65;4.80;;;21.10;87.40;;;;;;5093137;28;20102;-53
2021/08/05 02:47:39;;;;;;;5.57;4.13;;;21.10;87.40;;;;;;5095532;28;20063;-53
2021/08/05 02:50:07;;;;;;;7.90;4.38;;;21.10;87.50;;;;;;5097314;28;20670;-54
2021/08/05 02:52:34;;;;;;;6.97;3.95;;;21.20;86.80;;;;;;5091362;28;20059;-52
2021/08/05 02:55:02;;;;;;;6.38;4.03;;;21.50;85.80;;;;;;5081617;28;20035;-52
2021/08/05 02:57:28;;;;;;;6.93;3.65;;;21.60;85.80;;;;;;5117669;28;20047;-52
2021/08/05 02:59:54;;;;;;;7.45;4.00;;;21.60;85.20;;;;;;5117765;28;20051;-52
2021/08/05 03:02:20;;;;;;;7.47;3.88;;;21.70;84.90;;;;;;5117832;28;20418;-53
2021/08/05 03:04:47;;;;;;;7.85;4.00;;;21.90;84.60;;;;;;5117515;28;20107;-53
2021/08/05 03:07:13;;;;;;;7.32;4.43;;;22.10;84.00;;;;;;5117589;28;20050;-53
2021/08/05 03:09:39;;;;;;;6.40;3.92;;;22.00;83.50;;;;;;5064767;28;20040;-53
2021/08/05 03:12:05;;;;;;;5.43;3.95;;;22.00;83.70;;;;;;5117270;28;20028;-53
2021/08/05 03:14:32;;;;;;;8.18;4.22;;;22.20;83.80;;;;;;5065164;28;20035;-52
2021/08/05 03:16:58;;;;;;;12.52;4.45;;;22.40;83.20;;;;;;5117152;28;20027;-53
2021/08/05 03:19:24;;;;;;;9.05;3.97;;;22.50;82.60;;;;;;5117265;28;20031;-52
2021/08/05 03:21:50;;;;;;;7.28;4.00;;;22.40;82.20;;;;;;5117229;28;20019;-53
2021/08/05 03:24:16;;;;;;;9.60;4.05;;;22.30;82.60;;;;;;5117417;28;20119;-53
2021/08/05 03:26:41;;;;;;;6.22;4.03;;;22.10;83.20;;;;;;5117180;28;20020;-52
2021/08/05 03:29:07;;;;;;;7.30;3.83;;;22.10;83.30;;;;;;5117082;28;20115;-53
2021/08/05 03:31:33;;;;;;;8.27;4.68;;;22.20;83.10;;;;;;5117294;28;20032;-52
2021/08/05 03:33:59;;;;;;;4.35;3.50;;;22.10;82.90;;;;;;5116998;28;20024;-53
2021/08/05 03:36:24;;;;;;;5.10;3.92;;;22.20;82.90;;;;;;5117228;28;20028;-52
2021/08/05 03:38:50;;;;;;;5.25;3.60;;;22.30;82.60;;;;;;5117008;28;20526;-53
2021/08/05 03:41:16;;;;;;;9.48;4.03;;;22.20;82.10;;;;;;5063698;28;20042;-52
2021/08/05 03:43:42;;;;;;;6.78;4.47;;;22.30;81.90;;;;;;5116972;28;20024;-52
2021/08/05 03:46:08;;;;;;;7.78;4.25;;;22.40;81.70;;;;;;5064134;28;20036;-52
2021/08/05 03:48:33;;;;;;;7.15;3.83;;;22.30;81.90;;;;;;5116564;28;20027;-52
2021/08/05 03:50:59;;;;;;;8.73;3.80;;;22.30;82.00;;;;;;5064536;28;20086;-52
2021/08/05 03:53:25;;;;;;;6.85;4.05;;;22.30;82.60;;;;;;5116960;28;20062;-53
2021/08/05 03:55:51;;;;;;;9.52;4.32;;;22.50;82.20;;;;;;5063495;28;20127;-52
2021/08/05 03:58:18;;;;;;;6.47;4.03;;;22.60;81.40;;;;;;5063436;28;20055;-52
2021/08/05 04:00:44;;;;;;;8.05;4.43;;;;;;;;;;5116592;28;20062;-52
2021/08/05 04:03:10;;;;;;;7.70;3.67;;;;;;;;;;5115581;28;20054;-53
2021/08/05 04:05:36;;;;;;;8.23;3.92;;;22.00;99.90;;;;;;5097007;28;20071;-53
2021/08/05 04:08:02;;;;;;;7.35;4.03;;;22.00;84.50;;;;;;5116460;28;20077;-52
2021/08/05 04:10:28;;;;;;;8.13;4.05;;;;;;;;;;5115305;28;20491;-53
2021/08/05 04:12:54;;;;;;;6.38;3.63;;;22.40;99.30;;;;;;5115884;28;20023;-52
2021/08/05 04:15:21;;;;;;;7.55;4.22;;;22.30;96.90;;;;;;5115649;28;20026;-53
2021/08/05 04:17:47;;;;;;;9.40;3.80;;;;;;;;;;5115379;28;20024;-53
2021/08/05 04:20:13;;;;;;;10.05;4.35;;;22.40;92.10;;;;;;5115412;28;20152;-52
2021/08/05 04:22:39;;;;;;;6.45;3.65;;;22.40;83.30;;;;;;5116384;28;20038;-52
2021/08/05 04:25:06;;;;;;;6.95;3.92;;;22.40;83.00;;;;;;5115791;28;20031;-53
2021/08/05 04:27:33;;;;;;;8.13;3.80;;;22.20;83.60;;;;;;5060836;28;20032;-52
2021/08/05 04:29:59;;;;;;;13.50;4.03;;;22.20;83.20;;;;;;5115363;28;20653;-53
2021/08/05 04:32:24;;;;;;;4.97;3.00;;;22.20;83.50;;;;;;5114152;28;20038;-52
2021/08/05 04:34:50;;;;;;;5.57;3.03;;;22.00;83.80;;;;;;5069827;28;20044;-53
2021/08/05 04:37:18;;;;;;;10.45;3.83;;;21.90;83.80;;;;;;5094318;28;20046;-53
2021/08/05 04:39:43;;;;;;;7.63;3.58;;;22.00;83.70;;;;;;5115442;28;20047;-52
2021/08/05 04:42:09;;;;;;;6.65;3.90;;;22.10;83.60;;;;;;5122920;27;20124;-52
2021/08/05 04:44:35;;;;;;;8.73;3.92;;;22.20;83.30;;;;;;5049959;27;20486;-52
2021/08/05 04:47:02;;;;;;;6.38;3.38;;;22.40;82.90;;;;;;5079608;27;20406;-53
2021/08/05 04:49:27;;;;;;;6.53;3.90;;;22.40;83.00;;;;;;5135926;27;20079;-52
2021/08/05 04:51:56;;;;;;;5.97;3.83;;;22.30;83.00;;;;;;5126100;27;20428;-52
2021/08/05 04:54:22;;;;;;;10.80;3.90;;;22.50;82.80;;;;;;5136088;27;20427;-53
2021/08/05 04:56:47;;;;;;;5.90;3.42;;;22.30;83.60;;;;;;5136182;27;20035;-52
2021/08/05 04:59:13;;;;;;;11.10;4.13;;;22.30;83.30;;;;;;5083086;27;20035;-52
2021/08/05 05:01:39;;;;;;;6.57;4.10;;;22.40;83.60;;;;;;5135099;27;20039;-53
2021/08/05 05:04:05;;;;;;;11.10;3.75;;;22.40;83.40;;;;;;5083587;27;20122;-53
2021/08/05 05:06:30;;;;;;;7.10;3.83;;;22.50;83.50;;;;;;5107077;28;20101;-52
2021/08/05 05:08:56;;;;;;;11.52;3.97;;;22.60;82.70;;;;;;5101511;28;20045;-53
2021/08/05 05:11:22;;;;;;;12.75;3.78;;;22.60;82.50;;;;;;5100315;28;20145;-53
2021/08/05 05:13:48;;;;;;;9.00;3.28;;;22.60;82.60;;;;;;5123297;27;20462;-50
2021/08/05 05:16:14;;;;;;;10.27;3.30;;;22.60;82.40;;;;;;5104904;27;20028;-51
2021/08/05 05:18:40;;;;;;;7.15;3.85;;;22.60;82.80;;;;;;5009290;28;20486;-51
2021/08/05 05:21:06;;;;;;;6.55;3.58;;;22.60;82.80;;;;;;5095009;28;20059;-51
2021/08/05 05:23:32;;;;;;;6.35;3.50;;;22.60;83.20;;;;;;5094557;28;20049;-51
2021/08/05 05:25:59;;;;;;;14.23;4.28;;;22.70;82.70;;;;;;5094614;28;20039;-50
2021/08/05 05:28:25;;;;;;;5.68;3.25;;;22.60;83.00;;;;;;5094375;28;20456;-51
2021/08/05 05:30:51;;;;;;;9.95;3.60;;;22.60;83.00;;;;;;5114469;27;20034;-53
2021/08/05 05:33:17;;;;;;;11.00;4.20;;;22.70;82.70;;;;;;5114685;27;20110;-51
2021/08/05 05:35:42;;;;;;;5.78;3.00;;;22.90;82.00;;;;;;5105713;27;21497;-51
2021/08/05 05:38:09;;;;;;;8.27;3.35;;;22.90;82.40;;;;;;5105900;27;20349;-50
2021/08/05 05:40:35;;;;;;;8.55;3.72;;;22.70;82.50;;;;;;5114606;27;20029;-50
2021/08/05 05:43:01;;;;;;;13.07;4.32;;;22.80;82.70;;;;;;5132527;27;20120;-50
2021/08/05 05:45:28;;;;;;;11.32;4.18;;;23.00;82.30;;;;;;5135261;27;20051;-51
2021/08/05 05:47:54;;;;;;;6.18;3.60;;;23.30;82.10;;;;;;5134754;27;20027;-51
2021/08/05 05:50:21;;;;;;;8.77;4.35;;;23.20;81.90;;;;;;5134946;27;20031;-50
2021/08/05 05:52:47;;;;;;;10.10;4.72;;;23.30;82.00;;;;;;5135132;27;20019;-51
2021/08/05 05:55:14;;;;;;;8.93;3.95;;;23.50;81.40;;;;;;5081728;27;20038;-51
2021/08/05 05:57:40;;;;;;;9.48;5.28;;;23.70;80.80;;;;;;5112763;27;20043;-50
2021/08/05 06:00:06;;;;;;;8.23;3.67;;;24.00;80.20;;;;;;5081951;27;20400;-51
2021/08/05 06:02:32;;;;;;;13.23;4.35;;;24.00;79.70;;;;;;5048233;27;20433;-50
2021/08/05 06:04:58;;;;;;;12.45;4.57;;;24.20;79.50;;;;;;5134885;27;20019;-51
2021/08/05 06:07:24;;;;;;;7.78;3.95;;;24.10;79.30;;;;;;5134635;27;20026;-51
2021/08/05 06:09:50;;;;;;;7.78;3.65;;;;;;;;;;5090974;28;20036;-51
2021/08/05 06:12:16;;;;;;;13.15;3.78;;;;;;;;;;5085500;28;20424;-51
2021/08/05 06:14:42;;;;;;;12.23;4.47;;;24.40;97.80;;;;;;5054234;28;20073;-50
2021/08/05 06:17:08;;;;;;;12.63;3.90;;;24.60;84.90;;;;;;5070895;28;20079;-50
2021/08/05 06:19:34;;;;;;;10.45;4.40;;;24.60;78.30;;;;;;5037495;28;20158;-51
2021/08/05 06:22:00;;;;;;;13.30;4.53;;;24.60;77.10;;;;;;5070781;28;20575;-50
2021/08/05 06:24:26;;;;;;;15.02;4.47;;;24.80;86.00;;;;;;4988105;28;20140;-50
2021/08/05 06:26:52;;;;;;;13.68;4.70;;;25.00;77.30;;;;;;5071157;28;20025;-51
2021/08/05 06:29:18;;;;;;;7.88;4.18;;;24.80;76.50;;;;;;5037812;28;20047;-53
2021/08/05 06:31:44;;;;;;;9.35;4.78;;;24.70;76.70;;;;;;5071077;28;20488;-52
2021/08/05 06:34:10;;;;;;;12.95;4.70;;;24.70;76.80;;;;;;5021479;28;20068;-52
2021/08/05 06:39:57;;;;;;;14.57;4.50;;;24.80;76.60;;;;;;5071327;28;20141;-52
2021/08/05 06:46:04;;;;;;;8.75;4.15;;;;;;;;;;5071393;28;20063;-52
2021/08/05 06:51:47;;;;;;;12.13;4.80;;;;;;;;;;5093410;28;20599;-51
2021/08/05 06:57:29;;;;;;;18.13;8.57;;;;;;;;;;5093223;28;20082;-52
2021/08/05 07:03:36;;;;;;;21.30;9.43;;;26.40;73.20;;;;;;5093402;28;20043;-52
2021/08/05 07:09:43;;;;;;;11.38;3.65;;;26.50;74.60;;;;;;5093307;28;20093;-52
2021/08/05 07:15:49;;;;;;;5.05;3.05;;;27.00;73.20;;;;;;5093256;28;20089;-52
2021/08/05 07:21:57;;;;;;;10.90;4.80;;;26.30;74.00;;;;;;5093220;28;20035;-52
2021/08/05 07:28:04;;;;;;;13.23;4.20;;;26.60;73.20;;;;;;5093240;28;20042;-52
2021/08/05 07:34:10;;;;;;;21.17;5.10;;;26.90;73.50;;;;;;5094321;28;20035;-53
2021/08/05 07:40:17;;;;;;;9.35;2.72;;;26.90;74.10;;;;;;5096879;28;20039;-52
2021/08/05 07:46:23;;;;;;;32.40;5.70;;;26.70;75.30;;;;;;5096467;28;20027;-52
2021/08/05 07:52:30;;;;;;;20.80;4.88;;;26.60;73.20;;;;;;5096318;28;20050;-53
2021/08/05 07:58:37;;;;;;;13.63;3.83;;;25.90;73.70;;;;;;5096608;28;20611;-52
2021/08/05 08:01:03;;;;;;;25.90;4.07;;;25.40;74.80;;;;;;5077403;28;20056;-52
2021/08/05 08:03:29;;;;;;;21.88;3.55;;;25.20;75.50;;;;;;5096569;28;20028;-52
2021/08/05 08:05:55;;;;;;;12.57;2.45;;;25.00;77.00;;;;;;5095992;28;20024;-51
2021/08/05 08:08:20;;;;;;;14.18;3.05;;;25.00;95.50;;;;;;5053422;28;20137;-53
2021/08/05 08:10:47;;;;;;;7.65;2.10;;;24.70;78.50;;;;;;5053769;28;20056;-51
2021/08/05 08:13:13;;;;;;;14.05;2.65;;;;;;;;;;5053579;28;20041;-52
2021/08/05 08:15:39;;;;;;;12.70;2.90;;;;;;;;;;5053431;28;20081;-53
2021/08/05 08:18:05;;;;;;;10.73;2.80;;;24.00;97.50;;;;;;5053675;28;20052;-52
2021/08/05 08:20:31;;;;;;;8.52;3.50;;;23.90;94.80;;;;;;5053581;28;20041;-51
2021/08/05 08:22:58;;;;;;;6.28;2.80;;;;;;;;;;5053414;28;20118;-52
2021/08/05 08:25:24;;;;;;;13.02;3.40;;;23.60;99.90;;;;;;5053691;28;20342;-53
2021/08/05 08:27:49;;;;;;;7.82;2.67;;;23.80;99.90;;;;;;5053336;28;20040;-54
2021/08/05 08:30:16;;;;;;;7.70;3.25;;;23.80;95.40;;;;;;5053367;28;20510;-52
2021/08/05 08:32:44;;;;;;;4.47;2.35;;;24.00;95.60;;;;;;5050997;28;20055;-53
2021/08/05 08:35:10;;;;;;;11.90;3.15;;;24.30;95.90;;;;;;5073548;28;20047;-52
2021/08/05 08:37:36;;;;;;;8.88;3.83;;;24.50;99.60;;;;;;5073347;28;20472;-52
2021/08/05 08:40:03;;;;;;;6.20;2.60;;;24.70;91.20;;;;;;5107177;28;20390;-53
2021/08/05 08:42:30;;;;;;;5.55;2.33;;;24.80;86.80;;;;;;5060108;28;20046;-52
2021/08/05 08:44:56;;;;;;;5.80;2.80;;;24.80;86.80;;;;;;5099762;27;20042;-56
2021/08/05 08:47:22;;;;;;;6.47;2.75;;;24.70;88.50;;;;;;5136482;27;20030;-53
2021/08/05 08:49:52;;;;;;;5.63;2.13;;;24.90;97.10;;;;;;5136096;27;20024;-52
2021/08/05 08:52:26;;;;;;;4.38;2.63;;;24.70;90.30;;;;;;5136261;27;20034;-53
2021/08/05 08:54:54;;;;;;;4.43;2.05;;;24.80;91.60;;;;;;5100123;27;20043;-53
2021/08/05 08:57:21;;;;;;;7.18;2.70;;;;;;;;;;5136496;27;20027;-52
2021/08/05 08:59:50;;;;;;;7.07;2.20;;;;;;;;;;5135905;27;20045;-52
2021/08/05 09:02:17;;;;;;;6.00;2.30;;;24.00;99.90;;;;;;5136214;27;20059;-53
2021/08/05 09:04:45;;;;;;;6.63;2.47;;;23.90;87.90;;;;;;5135831;27;20062;-52
2021/08/05 09:07:11;;;;;;;2.85;1.17;;;23.70;87.90;;;;;;5135851;27;20462;-53
2021/08/05 09:09:36;;;;;;;5.45;2.13;;;23.50;88.40;;;;;;5066080;27;20061;-52
2021/08/05 09:12:02;;;;;;;6.57;2.20;;;23.40;88.70;;;;;;5135837;27;20043;-53
2021/08/05 09:14:50;;;;;;;6.93;2.45;;;23.10;90.60;;;;;;5065499;27;20042;-54
2021/08/05 09:17:27;;;;;;;6.28;2.35;;;22.60;92.10;;;;;;5123393;27;20065;-53
2021/08/05 09:19:56;;;;;;;10.10;2.10;;;22.30;92.90;;;;;;5110857;27;20093;-52
2021/08/05 09:22:31;;;;;;;6.38;2.13;;;22.00;94.00;;;;;;5122397;27;20027;-53
2021/08/05 09:24:58;;;;;;;5.00;2.40;;;21.90;95.30;;;;;;5128821;27;20027;-54
2021/08/05 09:27:31;;;;;;;9.00;2.30;;;21.90;96.70;;;;;;5135492;27;20027;-54
2021/08/05 09:30:00;;;;;;;4.50;2.00;;;21.80;99.90;;;;;;5135335;27;20027;-54
2021/08/05 09:32:28;;;;;;;6.40;2.50;;;;;;;;;;5135535;27;20130;-52
2021/08/05 09:35:05;;;;;;;6.68;3.03;;;;;;;;;;5099179;27;20084;-52
2021/08/05 09:37:35;;;;;;;6.00;2.35;;;;;;;;;;5099552;27;20100;-53
2021/08/05 09:40:08;;;;;;;4.13;2.70;;;;;;;;;;5099350;27;20050;-52
2021/08/05 09:42:34;;;;;;;7.28;2.80;;;22.40;99.90;;;;;;5123430;27;20048;-52
2021/08/05 09:45:00;;;;;;;5.57;2.65;;;22.40;99.90;;;;;;5114196;28;20032;-52
2021/08/05 09:47:26;;;;;;;6.55;2.50;;;22.60;99.90;;;;;;5099489;28;20139;-52
2021/08/05 09:49:54;;;;;;;4.85;2.55;;;22.60;99.90;;;;;;5111331;28;20059;-53
2021/08/05 09:52:34;;;;;;;6.13;3.13;;;22.50;99.90;;;;;;5041312;28;20120;-53
2021/08/05 09:55:02;;;;;;;4.47;2.50;;;22.40;99.90;;;;;;5103161;28;20032;-52
2021/08/05 09:57:29;;;;;;;5.70;2.92;;;22.40;99.90;;;;;;5114194;28;20037;-53
2021/08/05 10:00:05;;;;;;;4.85;2.65;;;22.30;99.90;;;;;;5114270;28;20031;-53
2021/08/05 10:02:42;;;;;;;7.20;2.60;;;22.30;99.90;;;;;;5111610;28;20059;-52
2021/08/05 10:05:24;;;;;;;7.25;2.88;;;22.50;99.90;;;;;;5095294;28;20432;-53
2021/08/05 10:07:53;;;;;;;7.55;3.53;;;;;;;;;;5112844;28;20076;-55
2021/08/05 10:10:21;;;;;;;6.78;3.30;;;;;;;;;;5093914;28;20042;-53
2021/08/05 10:12:54;;;;;;;5.43;2.67;;;;;;;;;;5074914;28;20044;-53
2021/08/05 10:15:21;;;;;;;7.63;2.50;;;22.60;99.90;;;;;;5094093;28;20111;-53
2021/08/05 10:17:52;;;;;;;6.72;2.60;;;22.80;99.90;;;;;;5093808;28;20040;-52
2021/08/05 10:20:19;;;;;;;9.67;3.13;;;20.60;99.90;;;;;;5093793;28;20046;-52
2021/08/05 10:22:48;;;;;;;12.60;3.63;;;22.60;99.90;;;;;;5101554;28;20024;-53
2021/08/05 10:25:16;;;;;;;5.50;2.85;;;22.70;99.90;;;;;;5107343;28;20510;-53
2021/08/05 10:27:43;;;;;;;8.32;3.33;;;22.70;99.90;;;;;;5114076;28;20478;-53
2021/08/05 10:30:12;;;;;;;8.00;3.40;;;22.00;99.90;;;;;;5114175;28;20123;-54
2021/08/05 10:32:39;;;;;;;6.63;3.00;;;22.00;99.90;;;;;;5078789;28;20391;-53
2021/08/05 10:35:07;;;;;;;8.07;3.25;;;;;;;;;;5113876;28;20042;-52
2021/08/05 10:37:33;;;;;;;8.68;3.47;;;;;;;;;;5078495;28;20036;-52
2021/08/05 10:39:59;;;;;;;8.25;3.75;;;;;;;;;;5114026;28;20549;-53
2021/08/05 10:42:25;;;;;;;11.60;4.90;;;22.10;99.90;;;;;;5112915;28;20044;-53
2021/08/05 10:44:52;;;;;;;4.28;2.42;;;;;;;;;;5040548;28;20173;-53
2021/08/05 10:47:24;;;;;;;13.50;6.28;;;21.30;99.90;;;;;;5093342;28;20477;-52
2021/08/05 10:50:00;;;;;;;10.30;4.95;;;20.90;99.90;;;;;;5074422;28;20119;-53
2021/08/05 10:52:38;;;;;;;14.45;6.13;;;20.80;99.90;;;;;;5093460;28;20624;-52
2021/08/05 10:55:15;;;;;;;10.60;5.47;;;21.30;99.90;;;;;;5093329;28;20032;-52
2021/08/05 10:57:42;;;;;;;15.88;7.75;;;21.50;99.90;;;;;;5093387;28;20031;-53
2021/08/05 11:00:13;;;;;;;13.90;6.20;;;21.80;99.90;;;;;;5093463;28;20060;-52
2021/08/05 11:03:05;;;;;;;10.98;6.13;;;21.90;99.90;;;;;;5093350;28;20035;-52
2021/08/05 11:05:37;;;;;;;7.38;4.72;;;21.90;99.90;;;;;;5090429;28;20040;-51
2021/08/05 11:08:08;;;;;;;5.43;2.67;;;21.70;99.90;;;;;;5059024;28;20063;-52
2021/08/05 11:10:37;;;;;;;16.70;6.90;;;21.20;99.90;;;;;;5097214;28;20032;-53
2021/08/05 11:13:08;;;;;;;11.55;5.68;;;21.20;99.90;;;;;;5097054;28;20040;-51
2021/08/05 11:15:34;;;;;;;11.07;5.75;;;21.20;99.90;;;;;;5097493;28;20482;-53
2021/08/05 11:18:15;;;;;;;12.50;7.35;;;21.50;99.90;;;;;;5097085;28;20044;-52
2021/08/05 11:20:52;;;;;;;14.35;6.03;;;21.60;99.90;;;;;;5097047;28;20142;-52
2021/08/05 11:23:34;;;;;;;10.10;4.78;;;21.80;99.90;;;;;;5097105;28;20562;-53
2021/08/05 11:26:00;;;;;;;10.45;5.38;;;22.10;99.90;;;;;;5097025;28;20467;-52
2021/08/05 11:28:27;;;;;;;8.65;4.68;;;22.00;99.90;;;;;;5097088;28;20113;-52
2021/08/05 11:30:52;;;;;;;8.05;5.00;;;22.00;99.90;;;;;;5080862;28;20039;-52
2021/08/05 11:33:36;;;;;;;8.98;4.68;;;22.30;99.90;;;;;;5117290;28;20024;-53
2021/08/05 11:39:12;;;;;;;10.68;6.00;;;22.70;99.90;;;;;;5117697;28;20039;-52
2021/08/05 11:41:47;;;;;;;8.82;5.07;;;22.80;99.90;;;;;;5116967;28;20071;-52
2021/08/05 11:44:25;;;;;;;11.70;5.40;;;22.90;99.90;;;;;;5117119;28;20374;-52
2021/08/05 11:47:06;;;;;;;9.07;4.28;;;23.30;99.90;;;;;;5117043;28;20032;-52
2021/08/05 11:49:36;;;;;;;7.55;3.58;;;23.70;99.90;;;;;;5117020;28;20351;-52
2021/08/05 11:52:24;;;;;;;6.57;4.00;;;23.70;99.90;;;;;;5116992;28;20032;-53
2021/08/05 11:55:20;;;;;;;6.78;4.03;;;23.80;99.90;;;;;;5116902;28;20360;-52
2021/08/05 11:57:55;;;;;;;4.65;2.80;;;24.40;99.90;;;;;;5054305;28;20041;-53
2021/08/05 12:00:21;;;;;;;10.05;2.97;;;;;;;;;;5054088;28;20037;-52
2021/08/05 12:02:51;;;;;;;7.38;2.17;;;24.50;99.50;;;;;;5054009;28;20153;-52
2021/08/05 12:05:20;;;;;;;4.63;2.47;;;25.00;98.40;;;;;;5053920;28;20029;-52
2021/08/05 12:07:51;;;;;;;5.45;2.63;;;24.70;96.70;;;;;;5053772;28;20036;-53
2021/08/05 12:10:22;;;;;;;4.85;3.28;;;24.90;98.00;;;;;;5051737;28;20047;-52
2021/08/05 12:12:53;;;;;;;4.88;2.88;;;25.10;98.00;;;;;;5053602;28;20112;-53
2021/08/05 12:15:34;;;;;;;4.38;2.45;;;25.30;94.80;;;;;;5053731;28;20048;-53
2021/08/05 12:18:04;;;;;;;7.43;2.50;;;25.30;98.80;;;;;;5045056;28;20108;-53
2021/08/05 12:20:41;;;;;;;2.45;1.40;;;25.30;98.50;;;;;;5033009;28;20040;-52
2021/08/05 12:23:22;;;;;;;5.07;2.35;;;25.40;96.50;;;;;;5046907;28;20111;-53
2021/08/05 12:26:13;;;;;;;7.37;2.40;;;;;;;;;;5053635;28;20048;-53
2021/08/05 12:28:38;;;;;;;7.38;2.53;;;;;;;;;;5053007;28;20119;-52
2021/08/05 12:31:07;;;;;;;3.55;2.08;;;27.20;88.50;;;;;;5036502;28;20037;-52
2021/08/05 12:33:37;;;;;;;5.78;2.15;;;;;;;;;;5033744;28;20037;-53
2021/08/05 12:36:09;;;;;;;4.00;2.55;;;28.50;82.00;;;;;;5106217;28;20032;-53
2021/08/05 12:39:11;;;;;;;4.50;2.83;;;29.00;84.00;;;;;;5097013;28;20425;-53
2021/08/05 12:41:37;;;;;;;4.53;2.63;;;29.30;80.00;;;;;;5096958;28;20386;-53
2021/08/05 12:44:13;;;;;;;5.15;2.00;;;29.80;79.80;;;;;;5113072;28;20028;-53
2021/08/05 12:46:50;;;;;;;3.75;2.05;;;30.20;77.90;;;;;;5108893;28;20040;-53
2021/08/05 12:49:16;;;;;;;6.03;2.92;;;30.50;76.20;;;;;;5100653;28;20038;-53
2021/08/05 12:51:43;;;;;;;5.05;2.10;;;30.70;76.30;;;;;;5100781;28;20047;-53
2021/08/05 12:54:15;;;;;;;6.47;2.10;;;30.80;75.70;;;;;;5075647;28;20050;-53
2021/08/05 12:56:48;;;;;;;3.80;1.98;;;30.40;74.70;;;;;;5115548;28;20115;-53
2021/08/05 12:59:15;;;;;;;9.27;2.38;;;31.00;73.30;;;;;;5079643;28;20043;-53
2021/08/05 13:01:42;;;;;;;6.30;2.08;;;31.20;73.90;;;;;;5115717;28;20038;-53
2021/08/05 13:04:26;;;;;;;5.63;2.13;;;31.50;74.10;;;;;;5115490;28;20054;-53
2021/08/05 13:06:57;;;;;;;3.53;2.10;;;30.60;75.10;;;;;;5115326;28;20032;-52
2021/08/05 13:09:24;;;;;;;6.70;2.35;;;30.30;76.40;;;;;;5115267;28;20066;-54
2021/08/05 13:11:51;;;;;;;5.95;2.58;;;31.00;78.00;;;;;;5115278;28;20439;-52
2021/08/05 13:14:37;;;;;;;5.97;2.00;;;31.20;74.90;;;;;;5096292;28;20086;-53
2021/08/05 13:17:09;;;;;;;6.13;2.42;;;31.60;76.00;;;;;;5115005;28;20441;-53
2021/08/05 13:19:58;;;;;;;6.53;2.72;;;31.60;72.90;;;;;;5079256;28;20122;-53
2021/08/05 13:22:43;;;;;;;3.55;1.58;;;31.50;74.40;;;;;;5111627;28;20219;-53
2021/08/05 13:25:14;;;;;;;1.98;1.40;;;31.90;68.60;;;;;;5096088;28;20036;-53
2021/08/05 13:27:42;;;;;;;3.73;1.47;;;32.00;62.60;;;;;;5111798;28;20717;-53
2021/08/05 13:30:18;;;;;;;2.28;1.60;;;32.20;65.00;;;;;;5104049;28;20032;-53
2021/08/05 13:32:46;;;;;;;3.45;1.75;;;32.50;64.40;;;;;;5105069;28;20031;-53
2021/08/05 13:35:14;;;;;;;4.13;1.65;;;32.40;63.60;;;;;;5087535;28;20459;-54
2021/08/05 13:37:45;;;;;;;3.55;2.22;;;32.60;63.20;;;;;;5050112;28;20039;-53
2021/08/05 13:40:16;;;;;;;3.50;1.90;;;32.40;65.10;;;;;;5105203;28;20702;-53
2021/08/05 13:42:42;;;;;;;;;;;32.40;63.90;;;;;;5105954;28;20051;-53
2021/08/05 13:45:09;;;;;;;9.68;7.00;;;32.60;62.10;;;;;;5111959;28;19915;-53
2021/08/05 13:47:36;;;;;;;4.65;2.90;;;32.80;62.10;;;;;;5075113;28;20399;-54
2021/08/05 13:50:26;;;;;;;6.20;5.13;;;33.10;61.60;;;;;;5110777;28;20054;-53
2021/08/05 13:52:54;;;;;;;2.78;1.73;;;33.20;59.30;;;;;;5111552;28;20043;-53
2021/08/05 13:55:21;;;;;;;5.72;1.92;;;33.00;60.80;;;;;;5109655;28;20036;-53
2021/08/05 13:57:48;;;;;;;4.10;2.10;;;33.20;62.60;;;;;;5065556;28;20043;-52